sensor_id;sensor_type;location;lat;lon;timestamp;P1;durP1;ratioP1;P2;durP2;ratioP2
57828;SDS011;43657;52.698;6.314;2022-08-07T00:00:27;10.65;;;9.52;;
57828;SDS011;43657;52.698;6.314;2022-08-07T00:02:53;11.02;;;8.85;;
57828;SDS011;43657;52.698;6.314;2022-08-07T00:05:21;9.88;;;8.63;;
57828;SDS011;43657;52.698;6.314;2022-08-07T00:07:47;11.18;;;9.98;;
57828;SDS011;43657;52.698;6.314;2022-08-07T00:10:12;12.68;;;9.68;;
57828;SDS011;43657;52.698;6.314;2022-08-07T00:12:38;9.82;;;8.77;;
57828;SDS011;43657;52.698;6.314;2022-08-07T00:15:04;11.75;;;9.23;;
57828;SDS011;43657;52.698;6.314;2022-08-07T00:17:30;10.73;;;8.52;;
57828;SDS011;43657;52.698;6.314;2022-08-07T00:19:56;10.38;;;9.23;;
57828;SDS011;43657;52.698;6.314;2022-08-07T00:22:21;11.20;;;9.23;;
57828;SDS011;43657;52.698;6.314;2022-08-07T00:24:47;9.75;;;8.60;;
57828;SDS011;43657;52.698;6.314;2022-08-07T00:27:12;9.60;;;8.00;;
57828;SDS011;43657;52.698;6.314;2022-08-07T00:29:38;10.27;;;8.25;;
57828;SDS011;43657;52.698;6.314;2022-08-07T00:32:04;12.10;;;9.20;;
57828;SDS011;43657;52.698;6.314;2022-08-07T00:34:30;11.00;;;8.38;;
57828;SDS011;43657;52.698;6.314;2022-08-07T00:36:56;8.60;;;7.13;;
57828;SDS011;43657;52.698;6.314;2022-08-07T00:39:22;8.70;;;7.68;;
57828;SDS011;43657;52.698;6.314;2022-08-07T00:41:57;10.13;;;7.75;;
57828;SDS011;43657;52.698;6.314;2022-08-07T00:44:23;10.05;;;8.18;;
57828;SDS011;43657;52.698;6.314;2022-08-07T00:46:49;9.18;;;7.88;;
57828;SDS011;43657;52.698;6.314;2022-08-07T00:49:15;9.90;;;8.43;;
57828;SDS011;43657;52.698;6.314;2022-08-07T00:51:41;9.60;;;8.20;;
57828;SDS011;43657;52.698;6.314;2022-08-07T00:54:08;8.90;;;7.80;;
57828;SDS011;43657;52.698;6.314;2022-08-07T00:56:35;9.60;;;8.05;;
57828;SDS011;43657;52.698;6.314;2022-08-07T00:59:01;8.77;;;7.45;;
57828;SDS011;43657;52.698;6.314;2022-08-07T01:01:27;9.13;;;7.07;;
57828;SDS011;43657;52.698;6.314;2022-08-07T01:03:53;7.10;;;6.38;;
57828;SDS011;43657;52.698;6.314;2022-08-07T01:06:19;9.25;;;7.57;;
57828;SDS011;43657;52.698;6.314;2022-08-07T01:08:44;10.40;;;7.70;;
57828;SDS011;43657;52.698;6.314;2022-08-07T01:11:11;9.15;;;7.63;;
57828;SDS011;43657;52.698;6.314;2022-08-07T01:13:38;8.73;;;7.43;;
57828;SDS011;43657;52.698;6.314;2022-08-07T01:16:04;8.77;;;7.22;;
57828;SDS011;43657;52.698;6.314;2022-08-07T01:18:31;7.75;;;6.50;;
57828;SDS011;43657;52.698;6.314;2022-08-07T01:21:32;8.85;;;6.75;;
57828;SDS011;43657;52.698;6.314;2022-08-07T01:23:51;8.30;;;6.63;;
57828;SDS011;43657;52.698;6.314;2022-08-07T01:26:19;8.13;;;6.90;;
57828;SDS011;43657;52.698;6.314;2022-08-07T01:28:47;7.97;;;6.55;;
57828;SDS011;43657;52.698;6.314;2022-08-07T01:31:18;8.40;;;6.88;;
57828;SDS011;43657;52.698;6.314;2022-08-07T01:33:47;8.32;;;7.43;;
57828;SDS011;43657;52.698;6.314;2022-08-07T01:36:13;7.97;;;6.70;;
57828;SDS011;43657;52.698;6.314;2022-08-07T01:38:38;7.93;;;7.10;;
57828;SDS011;43657;52.698;6.314;2022-08-07T01:41:05;9.07;;;7.13;;
57828;SDS011;43657;52.698;6.314;2022-08-07T01:43:31;8.63;;;6.88;;
57828;SDS011;43657;52.698;6.314;2022-08-07T01:45:58;8.48;;;7.28;;
57828;SDS011;43657;52.698;6.314;2022-08-07T01:48:24;8.70;;;7.32;;
57828;SDS011;43657;52.698;6.314;2022-08-07T01:58:30;9.15;;;7.50;;
57828;SDS011;43657;52.698;6.314;2022-08-07T02:00:59;9.98;;;8.80;;
57828;SDS011;43657;52.698;6.314;2022-08-07T02:03:28;8.23;;;7.13;;
57828;SDS011;43657;52.698;6.314;2022-08-07T02:06:04;8.68;;;7.30;;
57828;SDS011;43657;52.698;6.314;2022-08-07T02:08:35;8.98;;;7.85;;
57828;SDS011;43657;52.698;6.314;2022-08-07T02:11:05;8.30;;;7.10;;
57828;SDS011;43657;52.698;6.314;2022-08-07T02:13:32;8.65;;;7.75;;
57828;SDS011;43657;52.698;6.314;2022-08-07T02:16:01;9.57;;;7.70;;
57828;SDS011;43657;52.698;6.314;2022-08-07T02:18:28;9.63;;;7.47;;
57828;SDS011;43657;52.698;6.314;2022-08-07T02:20:57;9.60;;;8.23;;
57828;SDS011;43657;52.698;6.314;2022-08-07T02:23:25;8.73;;;7.45;;
57828;SDS011;43657;52.698;6.314;2022-08-07T02:25:52;9.60;;;7.78;;
57828;SDS011;43657;52.698;6.314;2022-08-07T02:28:20;8.35;;;6.93;;
57828;SDS011;43657;52.698;6.314;2022-08-07T02:30:46;9.50;;;7.45;;
57828;SDS011;43657;52.698;6.314;2022-08-07T02:33:14;9.13;;;7.65;;
57828;SDS011;43657;52.698;6.314;2022-08-07T02:35:42;11.25;;;8.55;;
57828;SDS011;43657;52.698;6.314;2022-08-07T02:38:10;8.35;;;7.38;;
57828;SDS011;43657;52.698;6.314;2022-08-07T02:40:38;9.63;;;7.88;;
57828;SDS011;43657;52.698;6.314;2022-08-07T02:43:04;10.70;;;8.63;;
57828;SDS011;43657;52.698;6.314;2022-08-07T02:45:30;9.65;;;7.78;;
57828;SDS011;43657;52.698;6.314;2022-08-07T02:47:59;9.70;;;7.38;;
57828;SDS011;43657;52.698;6.314;2022-08-07T02:50:25;10.13;;;7.38;;
57828;SDS011;43657;52.698;6.314;2022-08-07T02:53:01;8.80;;;7.30;;
57828;SDS011;43657;52.698;6.314;2022-08-07T02:55:33;12.75;;;7.22;;
57828;SDS011;43657;52.698;6.314;2022-08-07T02:58:08;10.40;;;7.22;;
57828;SDS011;43657;52.698;6.314;2022-08-07T03:00:35;9.02;;;6.95;;
57828;SDS011;43657;52.698;6.314;2022-08-07T03:03:04;8.60;;;7.28;;
57828;SDS011;43657;52.698;6.314;2022-08-07T03:05:31;9.98;;;7.45;;
57828;SDS011;43657;52.698;6.314;2022-08-07T03:08:00;8.50;;;7.25;;
57828;SDS011;43657;52.698;6.314;2022-08-07T03:10:31;11.50;;;7.80;;
57828;SDS011;43657;52.698;6.314;2022-08-07T03:12:57;8.60;;;7.10;;
57828;SDS011;43657;52.698;6.314;2022-08-07T03:15:24;8.40;;;6.90;;
57828;SDS011;43657;52.698;6.314;2022-08-07T03:17:50;9.75;;;7.70;;
57828;SDS011;43657;52.698;6.314;2022-08-07T03:20:16;7.57;;;6.50;;
57828;SDS011;43657;52.698;6.314;2022-08-07T03:22:42;8.63;;;6.38;;
57828;SDS011;43657;52.698;6.314;2022-08-07T03:25:10;8.38;;;6.32;;
57828;SDS011;43657;52.698;6.314;2022-08-07T03:27:36;7.53;;;6.70;;
57828;SDS011;43657;52.698;6.314;2022-08-07T03:30:03;8.60;;;7.00;;
57828;SDS011;43657;52.698;6.314;2022-08-07T03:32:33;7.40;;;6.47;;
57828;SDS011;43657;52.698;6.314;2022-08-07T03:37:29;9.32;;;6.75;;
57828;SDS011;43657;52.698;6.314;2022-08-07T03:39:56;8.38;;;6.72;;
57828;SDS011;43657;52.698;6.314;2022-08-07T03:42:23;8.35;;;7.13;;
57828;SDS011;43657;52.698;6.314;2022-08-07T03:44:49;8.85;;;7.00;;
57828;SDS011;43657;52.698;6.314;2022-08-07T03:47:16;9.15;;;7.35;;
57828;SDS011;43657;52.698;6.314;2022-08-07T03:49:42;10.38;;;7.70;;
57828;SDS011;43657;52.698;6.314;2022-08-07T03:52:07;9.15;;;7.88;;
57828;SDS011;43657;52.698;6.314;2022-08-07T03:54:35;10.18;;;8.20;;
57828;SDS011;43657;52.698;6.314;2022-08-07T03:57:01;10.15;;;7.75;;
57828;SDS011;43657;52.698;6.314;2022-08-07T03:59:29;8.90;;;7.25;;
57828;SDS011;43657;52.698;6.314;2022-08-07T04:01:56;8.63;;;7.32;;
57828;SDS011;43657;52.698;6.314;2022-08-07T04:04:23;8.68;;;6.72;;
57828;SDS011;43657;52.698;6.314;2022-08-07T04:06:50;9.23;;;7.10;;
57828;SDS011;43657;52.698;6.314;2022-08-07T04:09:15;8.45;;;6.88;;
57828;SDS011;43657;52.698;6.314;2022-08-07T04:11:45;7.47;;;6.15;;
57828;SDS011;43657;52.698;6.314;2022-08-07T04:14:11;8.50;;;7.22;;
57828;SDS011;43657;52.698;6.314;2022-08-07T04:16:37;6.93;;;6.18;;
57828;SDS011;43657;52.698;6.314;2022-08-07T04:19:04;7.00;;;6.30;;
57828;SDS011;43657;52.698;6.314;2022-08-07T04:21:32;8.98;;;6.65;;
57828;SDS011;43657;52.698;6.314;2022-08-07T04:23:57;7.72;;;6.40;;
57828;SDS011;43657;52.698;6.314;2022-08-07T04:26:24;7.20;;;6.28;;
57828;SDS011;43657;52.698;6.314;2022-08-07T04:28:50;8.25;;;6.80;;
57828;SDS011;43657;52.698;6.314;2022-08-07T04:31:15;8.80;;;6.20;;
57828;SDS011;43657;52.698;6.314;2022-08-07T04:33:41;7.78;;;6.53;;
57828;SDS011;43657;52.698;6.314;2022-08-07T04:36:09;7.80;;;6.68;;
57828;SDS011;43657;52.698;6.314;2022-08-07T04:38:35;7.50;;;6.40;;
57828;SDS011;43657;52.698;6.314;2022-08-07T04:41:01;7.85;;;6.72;;
57828;SDS011;43657;52.698;6.314;2022-08-07T04:43:28;8.68;;;7.07;;
57828;SDS011;43657;52.698;6.314;2022-08-07T04:46:07;9.48;;;6.72;;
57828;SDS011;43657;52.698;6.314;2022-08-07T04:48:48;8.18;;;6.32;;
57828;SDS011;43657;52.698;6.314;2022-08-07T04:51:30;9.95;;;8.02;;
57828;SDS011;43657;52.698;6.314;2022-08-07T04:57:21;10.52;;;7.55;;
57828;SDS011;43657;52.698;6.314;2022-08-07T05:08:02;8.38;;;6.22;;
57828;SDS011;43657;52.698;6.314;2022-08-07T05:10:51;9.65;;;7.57;;
57828;SDS011;43657;52.698;6.314;2022-08-07T05:13:30;8.50;;;6.82;;
57828;SDS011;43657;52.698;6.314;2022-08-07T05:16:00;10.38;;;7.47;;
57828;SDS011;43657;52.698;6.314;2022-08-07T05:18:31;9.50;;;7.53;;
57828;SDS011;43657;52.698;6.314;2022-08-07T05:21:00;8.50;;;7.28;;
57828;SDS011;43657;52.698;6.314;2022-08-07T05:26:03;10.18;;;7.88;;
57828;SDS011;43657;52.698;6.314;2022-08-07T05:28:31;9.57;;;7.40;;
57828;SDS011;43657;52.698;6.314;2022-08-07T05:30:58;10.48;;;6.95;;
57828;SDS011;43657;52.698;6.314;2022-08-07T05:33:26;7.93;;;6.78;;
57828;SDS011;43657;52.698;6.314;2022-08-07T05:35:52;8.73;;;6.68;;
57828;SDS011;43657;52.698;6.314;2022-08-07T05:38:19;10.45;;;8.20;;
57828;SDS011;43657;52.698;6.314;2022-08-07T05:40:46;8.85;;;7.40;;
57828;SDS011;43657;52.698;6.314;2022-08-07T05:43:13;11.23;;;8.05;;
57828;SDS011;43657;52.698;6.314;2022-08-07T05:45:40;11.50;;;9.32;;
57828;SDS011;43657;52.698;6.314;2022-08-07T05:48:07;14.32;;;10.30;;
57828;SDS011;43657;52.698;6.314;2022-08-07T05:50:33;15.80;;;11.60;;
57828;SDS011;43657;52.698;6.314;2022-08-07T05:53:01;15.07;;;11.27;;
57828;SDS011;43657;52.698;6.314;2022-08-07T05:55:27;15.50;;;11.80;;
57828;SDS011;43657;52.698;6.314;2022-08-07T05:57:54;16.88;;;12.45;;
57828;SDS011;43657;52.698;6.314;2022-08-07T06:00:21;16.25;;;11.98;;
57828;SDS011;43657;52.698;6.314;2022-08-07T06:02:49;19.10;;;13.13;;
57828;SDS011;43657;52.698;6.314;2022-08-07T06:05:17;18.02;;;12.18;;
57828;SDS011;43657;52.698;6.314;2022-08-07T06:07:44;18.63;;;13.20;;
57828;SDS011;43657;52.698;6.314;2022-08-07T06:10:11;22.33;;;15.48;;
57828;SDS011;43657;52.698;6.314;2022-08-07T06:12:36;24.63;;;16.08;;
57828;SDS011;43657;52.698;6.314;2022-08-07T06:15:02;23.30;;;15.88;;
57828;SDS011;43657;52.698;6.314;2022-08-07T06:17:29;23.55;;;16.63;;
57828;SDS011;43657;52.698;6.314;2022-08-07T06:19:56;25.25;;;17.10;;
57828;SDS011;43657;52.698;6.314;2022-08-07T06:22:23;23.60;;;15.82;;
57828;SDS011;43657;52.698;6.314;2022-08-07T06:24:50;22.23;;;16.30;;
57828;SDS011;43657;52.698;6.314;2022-08-07T06:27:22;23.33;;;15.93;;
57828;SDS011;43657;52.698;6.314;2022-08-07T06:29:48;24.65;;;17.63;;
57828;SDS011;43657;52.698;6.314;2022-08-07T06:32:14;23.95;;;16.75;;
57828;SDS011;43657;52.698;6.314;2022-08-07T06:34:40;23.55;;;17.30;;
57828;SDS011;43657;52.698;6.314;2022-08-07T06:37:05;23.02;;;16.10;;
57828;SDS011;43657;52.698;6.314;2022-08-07T06:39:31;22.17;;;16.35;;
57828;SDS011;43657;52.698;6.314;2022-08-07T06:44:37;20.50;;;16.52;;
57828;SDS011;43657;52.698;6.314;2022-08-07T06:47:04;22.65;;;17.00;;
57828;SDS011;43657;52.698;6.314;2022-08-07T06:49:30;20.08;;;15.82;;
57828;SDS011;43657;52.698;6.314;2022-08-07T06:51:56;19.88;;;15.93;;
57828;SDS011;43657;52.698;6.314;2022-08-07T06:54:24;21.52;;;16.30;;
57828;SDS011;43657;52.698;6.314;2022-08-07T06:56:50;22.38;;;16.42;;
57828;SDS011;43657;52.698;6.314;2022-08-07T06:59:19;18.40;;;14.93;;
57828;SDS011;43657;52.698;6.314;2022-08-07T07:01:48;17.85;;;14.15;;
57828;SDS011;43657;52.698;6.314;2022-08-07T07:04:14;14.13;;;11.07;;
57828;SDS011;43657;52.698;6.314;2022-08-07T07:06:40;13.45;;;11.25;;
57828;SDS011;43657;52.698;6.314;2022-08-07T07:11:41;12.60;;;10.57;;
57828;SDS011;43657;52.698;6.314;2022-08-07T07:14:13;14.40;;;10.80;;
57828;SDS011;43657;52.698;6.314;2022-08-07T07:16:42;13.40;;;11.27;;
57828;SDS011;43657;52.698;6.314;2022-08-07T07:19:09;10.13;;;8.48;;
57828;SDS011;43657;52.698;6.314;2022-08-07T07:21:37;9.23;;;7.70;;
57828;SDS011;43657;52.698;6.314;2022-08-07T07:24:06;9.57;;;7.57;;
57828;SDS011;43657;52.698;6.314;2022-08-07T07:26:34;9.77;;;7.25;;
57828;SDS011;43657;52.698;6.314;2022-08-07T07:29:02;8.80;;;6.40;;
57828;SDS011;43657;52.698;6.314;2022-08-07T07:31:36;7.20;;;6.45;;
57828;SDS011;43657;52.698;6.314;2022-08-07T07:34:05;9.07;;;6.57;;
57828;SDS011;43657;52.698;6.314;2022-08-07T07:36:33;7.70;;;6.85;;
57828;SDS011;43657;52.698;6.314;2022-08-07T07:39:02;7.82;;;6.75;;
57828;SDS011;43657;52.698;6.314;2022-08-07T07:41:29;7.40;;;6.55;;
57828;SDS011;43657;52.698;6.314;2022-08-07T07:43:56;7.07;;;5.85;;
57828;SDS011;43657;52.698;6.314;2022-08-07T07:46:24;7.47;;;5.50;;
57828;SDS011;43657;52.698;6.314;2022-08-07T07:48:52;6.00;;;4.63;;
57828;SDS011;43657;52.698;6.314;2022-08-07T07:51:19;6.00;;;4.43;;
57828;SDS011;43657;52.698;6.314;2022-08-07T07:53:46;3.65;;;3.33;;
57828;SDS011;43657;52.698;6.314;2022-08-07T07:56:14;5.45;;;3.35;;
57828;SDS011;43657;52.698;6.314;2022-08-07T07:58:41;4.15;;;3.30;;
57828;SDS011;43657;52.698;6.314;2022-08-07T08:01:08;6.03;;;3.83;;
57828;SDS011;43657;52.698;6.314;2022-08-07T08:03:36;5.55;;;4.57;;
57828;SDS011;43657;52.698;6.314;2022-08-07T08:06:03;6.68;;;4.90;;
57828;SDS011;43657;52.698;6.314;2022-08-07T08:08:30;6.20;;;4.05;;
57828;SDS011;43657;52.698;6.314;2022-08-07T08:37:02;3.80;;;2.72;;
57828;SDS011;43657;52.698;6.314;2022-08-07T09:00:12;5.60;;;2.40;;
57828;SDS011;43657;52.698;6.314;2022-08-07T09:22:30;2.55;;;1.98;;
57828;SDS011;43657;52.698;6.314;2022-08-07T09:34:05;2.42;;;2.03;;
57828;SDS011;43657;52.698;6.314;2022-08-07T09:37:34;2.38;;;2.08;;
57828;SDS011;43657;52.698;6.314;2022-08-07T09:52:04;2.33;;;1.67;;
57828;SDS011;43657;52.698;6.314;2022-08-07T10:37:57;1.50;;;1.27;;
57828;SDS011;43657;52.698;6.314;2022-08-07T10:44:06;1.63;;;0.98;;
57828;SDS011;43657;52.698;6.314;2022-08-07T10:50:47;1.52;;;1.25;;
57828;SDS011;43657;52.698;6.314;2022-08-07T11:04:34;1.40;;;1.23;;
57828;SDS011;43657;52.698;6.314;2022-08-07T11:07:35;1.92;;;1.00;;
57828;SDS011;43657;52.698;6.314;2022-08-07T11:10:54;2.35;;;1.00;;
57828;SDS011;43657;52.698;6.314;2022-08-07T11:16:10;1.88;;;0.80;;
57828;SDS011;43657;52.698;6.314;2022-08-07T11:25:08;1.67;;;1.10;;
57828;SDS011;43657;52.698;6.314;2022-08-07T11:35:04;1.50;;;1.15;;
57828;SDS011;43657;52.698;6.314;2022-08-07T11:40:37;1.45;;;1.20;;
57828;SDS011;43657;52.698;6.314;2022-08-07T11:43:32;1.45;;;1.30;;
57828;SDS011;43657;52.698;6.314;2022-08-07T11:53:15;1.52;;;1.10;;
57828;SDS011;43657;52.698;6.314;2022-08-07T12:02:34;1.52;;;1.10;;
57828;SDS011;43657;52.698;6.314;2022-08-07T12:08:51;2.50;;;1.38;;
57828;SDS011;43657;52.698;6.314;2022-08-07T12:14:43;2.50;;;1.30;;
57828;SDS011;43657;52.698;6.314;2022-08-07T12:17:59;1.75;;;1.40;;
57828;SDS011;43657;52.698;6.314;2022-08-07T12:20:50;2.28;;;1.50;;
57828;SDS011;43657;52.698;6.314;2022-08-07T12:27:32;1.98;;;1.35;;
57828;SDS011;43657;52.698;6.314;2022-08-07T13:12:25;1.73;;;1.48;;
57828;SDS011;43657;52.698;6.314;2022-08-07T13:26:25;2.10;;;1.55;;
57828;SDS011;43657;52.698;6.314;2022-08-07T13:29:20;2.40;;;1.45;;
57828;SDS011;43657;52.698;6.314;2022-08-07T13:32:00;2.13;;;1.42;;
57828;SDS011;43657;52.698;6.314;2022-08-07T13:40:12;2.60;;;1.38;;
57828;SDS011;43657;52.698;6.314;2022-08-07T13:42:44;1.63;;;1.30;;
57828;SDS011;43657;52.698;6.314;2022-08-07T13:45:13;1.98;;;1.40;;
57828;SDS011;43657;52.698;6.314;2022-08-07T13:47:40;13.10;;;1.95;;
57828;SDS011;43657;52.698;6.314;2022-08-07T13:50:08;14.40;;;2.03;;
57828;SDS011;43657;52.698;6.314;2022-08-07T13:52:38;2.80;;;1.55;;
57828;SDS011;43657;52.698;6.314;2022-08-07T13:55:15;3.33;;;1.58;;
57828;SDS011;43657;52.698;6.314;2022-08-07T13:57:45;2.95;;;1.40;;
57828;SDS011;43657;52.698;6.314;2022-08-07T14:00:14;2.20;;;1.48;;
57828;SDS011;43657;52.698;6.314;2022-08-07T14:02:41;8.63;;;1.50;;
57828;SDS011;43657;52.698;6.314;2022-08-07T14:05:08;4.13;;;1.52;;
57828;SDS011;43657;52.698;6.314;2022-08-07T14:07:40;2.15;;;1.35;;
57828;SDS011;43657;52.698;6.314;2022-08-07T14:10:11;1.20;;;1.10;;
57828;SDS011;43657;52.698;6.314;2022-08-07T14:18:31;1.85;;;1.52;;
57828;SDS011;43657;52.698;6.314;2022-08-07T14:21:17;1.25;;;1.15;;
57828;SDS011;43657;52.698;6.314;2022-08-07T14:23:55;2.35;;;1.40;;
57828;SDS011;43657;52.698;6.314;2022-08-07T14:26:29;1.50;;;1.17;;
57828;SDS011;43657;52.698;6.314;2022-08-07T14:29:00;1.73;;;1.45;;
57828;SDS011;43657;52.698;6.314;2022-08-07T14:31:29;1.80;;;1.40;;
57828;SDS011;43657;52.698;6.314;2022-08-07T14:33:55;2.05;;;1.52;;
57828;SDS011;43657;52.698;6.314;2022-08-07T14:36:23;1.60;;;1.15;;
57828;SDS011;43657;52.698;6.314;2022-08-07T14:38:50;3.28;;;1.38;;
57828;SDS011;43657;52.698;6.314;2022-08-07T14:41:26;1.65;;;1.40;;
57828;SDS011;43657;52.698;6.314;2022-08-07T14:43:56;4.63;;;1.70;;
57828;SDS011;43657;52.698;6.314;2022-08-07T14:46:24;2.28;;;1.40;;
57828;SDS011;43657;52.698;6.314;2022-08-07T14:48:52;1.52;;;1.10;;
57828;SDS011;43657;52.698;6.314;2022-08-07T14:51:25;1.20;;;1.10;;
57828;SDS011;43657;52.698;6.314;2022-08-07T14:53:52;1.90;;;1.50;;
57828;SDS011;43657;52.698;6.314;2022-08-07T14:56:20;1.42;;;1.20;;
57828;SDS011;43657;52.698;6.314;2022-08-07T14:58:48;1.83;;;1.40;;
57828;SDS011;43657;52.698;6.314;2022-08-07T15:01:17;2.38;;;1.20;;
57828;SDS011;43657;52.698;6.314;2022-08-07T15:03:44;2.25;;;1.40;;
57828;SDS011;43657;52.698;6.314;2022-08-07T15:06:11;4.05;;;1.70;;
57828;SDS011;43657;52.698;6.314;2022-08-07T15:08:39;1.95;;;1.30;;
57828;SDS011;43657;52.698;6.314;2022-08-07T15:11:10;1.65;;;1.20;;
57828;SDS011;43657;52.698;6.314;2022-08-07T15:13:48;2.05;;;1.02;;
57828;SDS011;43657;52.698;6.314;2022-08-07T15:16:18;1.67;;;1.55;;
57828;SDS011;43657;52.698;6.314;2022-08-07T15:18:52;2.95;;;1.38;;
57828;SDS011;43657;52.698;6.314;2022-08-07T15:21:33;1.77;;;1.40;;
57828;SDS011;43657;52.698;6.314;2022-08-07T15:24:03;2.42;;;1.20;;
57828;SDS011;43657;52.698;6.314;2022-08-07T15:26:40;2.17;;;1.27;;
57828;SDS011;43657;52.698;6.314;2022-08-07T15:29:09;1.80;;;1.40;;
57828;SDS011;43657;52.698;6.314;2022-08-07T15:31:43;2.70;;;1.40;;
57828;SDS011;43657;52.698;6.314;2022-08-07T15:34:13;1.75;;;1.13;;
57828;SDS011;43657;52.698;6.314;2022-08-07T15:36:40;1.60;;;0.90;;
57828;SDS011;43657;52.698;6.314;2022-08-07T15:39:07;1.75;;;1.17;;
57828;SDS011;43657;52.698;6.314;2022-08-07T15:41:55;2.92;;;1.10;;
57828;SDS011;43657;52.698;6.314;2022-08-07T15:44:23;3.22;;;1.00;;
57828;SDS011;43657;52.698;6.314;2022-08-07T15:46:57;1.38;;;1.05;;
57828;SDS011;43657;52.698;6.314;2022-08-07T15:49:29;3.15;;;1.10;;
57828;SDS011;43657;52.698;6.314;2022-08-07T15:51:59;2.70;;;1.10;;
57828;SDS011;43657;52.698;6.314;2022-08-07T15:54:36;2.40;;;1.20;;
57828;SDS011;43657;52.698;6.314;2022-08-07T15:57:05;2.67;;;1.15;;
57828;SDS011;43657;52.698;6.314;2022-08-07T15:59:36;1.35;;;1.00;;
57828;SDS011;43657;52.698;6.314;2022-08-07T16:02:03;1.70;;;1.15;;
57828;SDS011;43657;52.698;6.314;2022-08-07T16:04:32;3.22;;;1.15;;
57828;SDS011;43657;52.698;6.314;2022-08-07T16:07:00;2.22;;;1.65;;
57828;SDS011;43657;52.698;6.314;2022-08-07T16:09:31;1.73;;;1.30;;
57828;SDS011;43657;52.698;6.314;2022-08-07T16:14:46;2.22;;;1.50;;
57828;SDS011;43657;52.698;6.314;2022-08-07T16:25:47;2.55;;;1.40;;
57828;SDS011;43657;52.698;6.314;2022-08-07T16:30:59;3.15;;;1.58;;
57828;SDS011;43657;52.698;6.314;2022-08-07T16:33:42;2.83;;;1.50;;
57828;SDS011;43657;52.698;6.314;2022-08-07T16:36:19;2.50;;;1.70;;
57828;SDS011;43657;52.698;6.314;2022-08-07T16:39:14;2.63;;;1.80;;
57828;SDS011;43657;52.698;6.314;2022-08-07T16:57:50;3.17;;;1.30;;
57828;SDS011;43657;52.698;6.314;2022-08-07T17:00:26;3.22;;;1.95;;
57828;SDS011;43657;52.698;6.314;2022-08-07T17:09:02;3.03;;;1.75;;
57828;SDS011;43657;52.698;6.314;2022-08-07T17:17:43;2.60;;;1.75;;
57828;SDS011;43657;52.698;6.314;2022-08-07T17:20:13;1.90;;;1.73;;
57828;SDS011;43657;52.698;6.314;2022-08-07T17:22:59;4.10;;;1.70;;
57828;SDS011;43657;52.698;6.314;2022-08-07T17:25:36;2.40;;;1.70;;
57828;SDS011;43657;52.698;6.314;2022-08-07T17:28:13;2.42;;;2.00;;
57828;SDS011;43657;52.698;6.314;2022-08-07T17:30:55;2.47;;;1.70;;
57828;SDS011;43657;52.698;6.314;2022-08-07T17:33:34;2.88;;;2.00;;
57828;SDS011;43657;52.698;6.314;2022-08-07T17:36:06;2.20;;;1.67;;
57828;SDS011;43657;52.698;6.314;2022-08-07T17:47:10;3.95;;;2.05;;
57828;SDS011;43657;52.698;6.314;2022-08-07T17:49:41;1.70;;;1.60;;
57828;SDS011;43657;52.698;6.314;2022-08-07T17:52:23;3.80;;;2.03;;
57828;SDS011;43657;52.698;6.314;2022-08-07T17:55:01;5.22;;;1.95;;
57828;SDS011;43657;52.698;6.314;2022-08-07T18:00:10;3.80;;;2.25;;
57828;SDS011;43657;52.698;6.314;2022-08-07T18:02:42;2.53;;;1.90;;
57828;SDS011;43657;52.698;6.314;2022-08-07T18:05:22;3.30;;;2.00;;
57828;SDS011;43657;52.698;6.314;2022-08-07T18:08:07;2.58;;;2.10;;
57828;SDS011;43657;52.698;6.314;2022-08-07T18:10:53;3.77;;;2.30;;
57828;SDS011;43657;52.698;6.314;2022-08-07T18:13:44;3.33;;;2.30;;
57828;SDS011;43657;52.698;6.314;2022-08-07T18:16:33;3.35;;;2.47;;
57828;SDS011;43657;52.698;6.314;2022-08-07T18:19:09;2.60;;;2.22;;
57828;SDS011;43657;52.698;6.314;2022-08-07T18:21:52;3.13;;;2.30;;
57828;SDS011;43657;52.698;6.314;2022-08-07T18:24:25;2.75;;;2.30;;
57828;SDS011;43657;52.698;6.314;2022-08-07T18:29:25;2.78;;;2.22;;
57828;SDS011;43657;52.698;6.314;2022-08-07T18:43:03;2.95;;;2.35;;
57828;SDS011;43657;52.698;6.314;2022-08-07T18:45:45;3.65;;;2.63;;
57828;SDS011;43657;52.698;6.314;2022-08-07T18:54:05;6.65;;;3.22;;
57828;SDS011;43657;52.698;6.314;2022-08-07T18:56:47;4.05;;;3.25;;
57828;SDS011;43657;52.698;6.314;2022-08-07T19:02:21;5.32;;;3.20;;
57828;SDS011;43657;52.698;6.314;2022-08-07T19:05:42;5.25;;;3.35;;
57828;SDS011;43657;52.698;6.314;2022-08-07T19:10:33;4.20;;;3.80;;
57828;SDS011;43657;52.698;6.314;2022-08-07T19:13:07;4.63;;;3.60;;
57828;SDS011;43657;52.698;6.314;2022-08-07T19:15:45;6.55;;;3.97;;
57828;SDS011;43657;52.698;6.314;2022-08-07T19:24:05;5.45;;;4.13;;
57828;SDS011;43657;52.698;6.314;2022-08-07T19:26:41;5.13;;;4.20;;
57828;SDS011;43657;52.698;6.314;2022-08-07T19:29:08;6.10;;;4.53;;
57828;SDS011;43657;52.698;6.314;2022-08-07T19:31:36;5.65;;;4.57;;
57828;SDS011;43657;52.698;6.314;2022-08-07T19:34:14;6.28;;;4.72;;
57828;SDS011;43657;52.698;6.314;2022-08-07T19:36:44;5.13;;;4.63;;
57828;SDS011;43657;52.698;6.314;2022-08-07T19:39:12;5.45;;;4.90;;
57828;SDS011;43657;52.698;6.314;2022-08-07T19:41:44;5.28;;;4.78;;
57828;SDS011;43657;52.698;6.314;2022-08-07T19:44:12;6.53;;;4.88;;
57828;SDS011;43657;52.698;6.314;2022-08-07T19:46:45;5.00;;;4.50;;
57828;SDS011;43657;52.698;6.314;2022-08-07T19:49:21;5.85;;;4.85;;
57828;SDS011;43657;52.698;6.314;2022-08-07T19:51:47;6.18;;;4.60;;
57828;SDS011;43657;52.698;6.314;2022-08-07T19:54:18;6.63;;;4.82;;
57828;SDS011;43657;52.698;6.314;2022-08-07T19:56:45;6.18;;;4.93;;
57828;SDS011;43657;52.698;6.314;2022-08-07T19:59:16;6.45;;;5.78;;
57828;SDS011;43657;52.698;6.314;2022-08-07T20:01:46;7.30;;;5.72;;
57828;SDS011;43657;52.698;6.314;2022-08-07T20:04:14;6.25;;;5.50;;
57828;SDS011;43657;52.698;6.314;2022-08-07T20:06:48;7.35;;;6.15;;
57828;SDS011;43657;52.698;6.314;2022-08-07T20:09:18;6.93;;;5.80;;
57828;SDS011;43657;52.698;6.314;2022-08-07T20:11:44;6.53;;;5.57;;
57828;SDS011;43657;52.698;6.314;2022-08-07T20:14:21;8.25;;;6.30;;
57828;SDS011;43657;52.698;6.314;2022-08-07T20:16:59;7.47;;;6.38;;
57828;SDS011;43657;52.698;6.314;2022-08-07T20:19:38;8.10;;;6.32;;
57828;SDS011;43657;52.698;6.314;2022-08-07T20:22:07;7.53;;;5.82;;
57828;SDS011;43657;52.698;6.314;2022-08-07T20:24:36;6.22;;;5.22;;
57828;SDS011;43657;52.698;6.314;2022-08-07T20:27:04;7.05;;;5.72;;
57828;SDS011;43657;52.698;6.314;2022-08-07T20:29:33;8.77;;;6.10;;
57828;SDS011;43657;52.698;6.314;2022-08-07T20:32:03;6.75;;;5.60;;
57828;SDS011;43657;52.698;6.314;2022-08-07T20:34:33;8.05;;;6.28;;
57828;SDS011;43657;52.698;6.314;2022-08-07T20:37:00;6.90;;;6.20;;
57828;SDS011;43657;52.698;6.314;2022-08-07T20:39:30;6.70;;;5.90;;
57828;SDS011;43657;52.698;6.314;2022-08-07T20:42:01;9.27;;;5.82;;
57828;SDS011;43657;52.698;6.314;2022-08-07T20:44:36;6.75;;;6.10;;
57828;SDS011;43657;52.698;6.314;2022-08-07T20:47:06;7.20;;;5.90;;
57828;SDS011;43657;52.698;6.314;2022-08-07T20:49:34;8.88;;;6.50;;
57828;SDS011;43657;52.698;6.314;2022-08-07T20:52:02;7.25;;;6.53;;
57828;SDS011;43657;52.698;6.314;2022-08-07T20:54:29;7.50;;;6.22;;
57828;SDS011;43657;52.698;6.314;2022-08-07T20:56:56;7.50;;;6.40;;
57828;SDS011;43657;52.698;6.314;2022-08-07T20:59:27;7.10;;;6.40;;
57828;SDS011;43657;52.698;6.314;2022-08-07T21:01:56;8.10;;;6.95;;
57828;SDS011;43657;52.698;6.314;2022-08-07T21:04:42;7.65;;;6.82;;
57828;SDS011;43657;52.698;6.314;2022-08-07T21:07:12;7.55;;;6.75;;
57828;SDS011;43657;52.698;6.314;2022-08-07T21:09:38;8.00;;;6.43;;
57828;SDS011;43657;52.698;6.314;2022-08-07T21:12:04;10.77;;;7.22;;
57828;SDS011;43657;52.698;6.314;2022-08-07T21:14:37;7.20;;;6.50;;
57828;SDS011;43657;52.698;6.314;2022-08-07T21:17:05;8.23;;;7.40;;